sensor_id;sensor_type;location;lat;lon;timestamp;temperature;humidity
66708;DHT22;53622;0.000;0.000;2024-01-25T00:00:56;20.10;50.20
66708;DHT22;53622;0.000;0.000;2024-01-25T00:03:27;20.10;50.10
66708;DHT22;53622;0.000;0.000;2024-01-25T00:05:56;20.10;50.10
66708;DHT22;53622;0.000;0.000;2024-01-25T00:08:25;20.10;50.10
66708;DHT22;53622;0.000;0.000;2024-01-25T00:10:54;20.10;50.10
66708;DHT22;53622;0.000;0.000;2024-01-25T00:13:23;20.10;50.10
66708;DHT22;53622;0.000;0.000;2024-01-25T00:15:52;20.10;50.10
66708;DHT22;53622;0.000;0.000;2024-01-25T00:18:21;20.10;50.10
66708;DHT22;53622;0.000;0.000;2024-01-25T00:20:53;20.10;50.10
66708;DHT22;53622;0.000;0.000;2024-01-25T00:23:22;20.10;50.10
66708;DHT22;53622;0.000;0.000;2024-01-25T00:25:51;20.10;50.10
66708;DHT22;53622;0.000;0.000;2024-01-25T00:28:19;20.10;50.10
66708;DHT22;53622;0.000;0.000;2024-01-25T00:30:48;20.00;50.00
66708;DHT22;53622;0.000;0.000;2024-01-25T00:33:19;20.00;50.10
66708;DHT22;53622;0.000;0.000;2024-01-25T00:35:53;20.00;50.10
66708;DHT22;53622;0.000;0.000;2024-01-25T00:38:22;20.00;50.20
66708;DHT22;53622;0.000;0.000;2024-01-25T00:40:52;20.00;50.10
66708;DHT22;53622;0.000;0.000;2024-01-25T00:43:21;20.00;50.10
66708;DHT22;53622;0.000;0.000;2024-01-25T00:45:51;20.00;50.20
66708;DHT22;53622;0.000;0.000;2024-01-25T00:48:20;20.00;50.10
66708;DHT22;53622;0.000;0.000;2024-01-25T00:50:51;20.00;50.10
66708;DHT22;53622;0.000;0.000;2024-01-25T00:53:21;20.00;50.10
66708;DHT22;53622;0.000;0.000;2024-01-25T00:55:51;20.00;50.10
66708;DHT22;53622;0.000;0.000;2024-01-25T00:58:20;20.00;50.00
66708;DHT22;53622;0.000;0.000;2024-01-25T01:00:50;20.00;50.10
66708;DHT22;53622;0.000;0.000;2024-01-25T01:03:19;20.00;50.10
66708;DHT22;53622;0.000;0.000;2024-01-25T01:05:49;19.90;50.00
66708;DHT22;53622;0.000;0.000;2024-01-25T01:08:21;19.90;50.00
66708;DHT22;53622;0.000;0.000;2024-01-25T01:10:50;19.90;50.10
66708;DHT22;53622;0.000;0.000;2024-01-25T01:13:19;19.90;50.10
66708;DHT22;53622;0.000;0.000;2024-01-25T01:15:50;19.90;50.10
66708;DHT22;53622;0.000;0.000;2024-01-25T01:18:19;19.90;50.20
66708;DHT22;53622;0.000;0.000;2024-01-25T01:20:48;19.90;50.10
66708;DHT22;53622;0.000;0.000;2024-01-25T01:23:17;19.90;50.10
66708;DHT22;53622;0.000;0.000;2024-01-25T01:25:47;19.90;50.20
66708;DHT22;53622;0.000;0.000;2024-01-25T01:28:16;19.90;50.20
66708;DHT22;53622;0.000;0.000;2024-01-25T01:30:45;19.90;50.10
66708;DHT22;53622;0.000;0.000;2024-01-25T01:33:14;19.90;50.20
66708;DHT22;53622;0.000;0.000;2024-01-25T01:35:43;19.90;50.10
66708;DHT22;53622;0.000;0.000;2024-01-25T01:38:12;19.90;50.10
66708;DHT22;53622;0.000;0.000;2024-01-25T01:40:42;19.80;50.10
66708;DHT22;53622;0.000;0.000;2024-01-25T01:43:19;19.80;50.20
66708;DHT22;53622;0.000;0.000;2024-01-25T01:45:49;19.80;50.10
66708;DHT22;53622;0.000;0.000;2024-01-25T01:48:17;19.80;50.10
66708;DHT22;53622;0.000;0.000;2024-01-25T01:50:47;19.80;50.10
66708;DHT22;53622;0.000;0.000;2024-01-25T01:53:17;19.80;50.00
66708;DHT22;53622;0.000;0.000;2024-01-25T01:55:46;19.80;50.00
66708;DHT22;53622;0.000;0.000;2024-01-25T01:58:15;19.80;50.00
66708;DHT22;53622;0.000;0.000;2024-01-25T02:00:46;19.80;50.00
66708;DHT22;53622;0.000;0.000;2024-01-25T02:03:17;19.80;50.10
66708;DHT22;53622;0.000;0.000;2024-01-25T02:05:46;19.80;50.10
66708;DHT22;53622;0.000;0.000;2024-01-25T02:08:15;19.80;50.10
66708;DHT22;53622;0.000;0.000;2024-01-25T02:10:44;19.80;50.10
66708;DHT22;53622;0.000;0.000;2024-01-25T02:13:13;19.80;50.10
66708;DHT22;53622;0.000;0.000;2024-01-25T02:15:44;19.80;50.10
66708;DHT22;53622;0.000;0.000;2024-01-25T02:18:13;19.80;50.10
66708;DHT22;53622;0.000;0.000;2024-01-25T02:20:43;19.80;50.10
66708;DHT22;53622;0.000;0.000;2024-01-25T02:23:13;19.80;50.10
66708;DHT22;53622;0.000;0.000;2024-01-25T02:25:42;19.80;50.20
66708;DHT22;53622;0.000;0.000;2024-01-25T02:28:11;19.80;50.20
66708;DHT22;53622;0.000;0.000;2024-01-25T02:30:40;19.80;50.20
66708;DHT22;53622;0.000;0.000;2024-01-25T02:33:09;19.70;50.20
66708;DHT22;53622;0.000;0.000;2024-01-25T02:35:38;19.70;50.30
66708;DHT22;53622;0.000;0.000;2024-01-25T02:38:07;19.70;50.30
66708;DHT22;53622;0.000;0.000;2024-01-25T02:40:37;19.70;50.30
66708;DHT22;53622;0.000;0.000;2024-01-25T02:43:06;19.70;50.40
66708;DHT22;53622;0.000;0.000;2024-01-25T02:45:34;19.70;50.40
66708;DHT22;53622;0.000;0.000;2024-01-25T02:48:04;19.70;50.40
66708;DHT22;53622;0.000;0.000;2024-01-25T02:50:33;19.70;50.40
66708;DHT22;53622;0.000;0.000;2024-01-25T02:53:03;19.70;50.50
66708;DHT22;53622;0.000;0.000;2024-01-25T02:55:32;19.70;50.60
66708;DHT22;53622;0.000;0.000;2024-01-25T02:58:03;19.70;50.50
66708;DHT22;53622;0.000;0.000;2024-01-25T03:00:32;19.70;50.60
66708;DHT22;53622;0.000;0.000;2024-01-25T03:03:01;19.70;50.60
66708;DHT22;53622;0.000;0.000;2024-01-25T03:05:29;19.70;50.60
66708;DHT22;53622;0.000;0.000;2024-01-25T03:07:58;19.70;50.60
66708;DHT22;53622;0.000;0.000;2024-01-25T03:10:28;19.70;50.60
66708;DHT22;53622;0.000;0.000;2024-01-25T03:12:57;19.70;50.60
66708;DHT22;53622;0.000;0.000;2024-01-25T03:15:27;19.70;50.70
66708;DHT22;53622;0.000;0.000;2024-01-25T03:17:56;19.70;50.70
66708;DHT22;53622;0.000;0.000;2024-01-25T03:20:25;19.60;50.60
66708;DHT22;53622;0.000;0.000;2024-01-25T03:22:54;19.60;50.60
66708;DHT22;53622;0.000;0.000;2024-01-25T03:25:23;19.60;50.70
66708;DHT22;53622;0.000;0.000;2024-01-25T03:27:52;19.60;50.70
66708;DHT22;53622;0.000;0.000;2024-01-25T03:30:20;19.60;50.70
66708;DHT22;53622;0.000;0.000;2024-01-25T03:32:51;19.60;50.70
66708;DHT22;53622;0.000;0.000;2024-01-25T03:35:20;19.60;50.70
66708;DHT22;53622;0.000;0.000;2024-01-25T03:37:48;19.60;50.70
66708;DHT22;53622;0.000;0.000;2024-01-25T03:40:17;19.60;51.30
66708;DHT22;53622;0.000;0.000;2024-01-25T03:42:46;19.60;50.70
66708;DHT22;53622;0.000;0.000;2024-01-25T03:45:35;19.60;50.70
66708;DHT22;53622;0.000;0.000;2024-01-25T03:48:06;19.60;50.80
66708;DHT22;53622;0.000;0.000;2024-01-25T03:50:35;19.60;50.80
66708;DHT22;53622;0.000;0.000;2024-01-25T03:53:04;19.60;50.70
66708;DHT22;53622;0.000;0.000;2024-01-25T03:55:34;19.50;50.70
66708;DHT22;53622;0.000;0.000;2024-01-25T03:58:03;19.50;50.70
66708;DHT22;53622;0.000;0.000;2024-01-25T04:00:32;19.50;50.80
66708;DHT22;53622;0.000;0.000;2024-01-25T04:03:01;19.50;50.80
66708;DHT22;53622;0.000;0.000;2024-01-25T04:05:34;19.60;50.80
66708;DHT22;53622;0.000;0.000;2024-01-25T04:08:03;19.50;50.90
66708;DHT22;53622;0.000;0.000;2024-01-25T04:10:32;19.60;50.90
66708;DHT22;53622;0.000;0.000;2024-01-25T04:13:02;19.60;50.90
66708;DHT22;53622;0.000;0.000;2024-01-25T04:15:32;19.50;50.90
66708;DHT22;53622;0.000;0.000;2024-01-25T04:18:01;19.50;50.80
66708;DHT22;53622;0.000;0.000;2024-01-25T04:20:30;19.50;50.90
66708;DHT22;53622;0.000;0.000;2024-01-25T04:23:03;19.50;50.90
66708;DHT22;53622;0.000;0.000;2024-01-25T04:25:32;19.50;50.90
66708;DHT22;53622;0.000;0.000;2024-01-25T04:28:01;19.50;50.90
66708;DHT22;53622;0.000;0.000;2024-01-25T04:30:30;19.50;51.00
66708;DHT22;53622;0.000;0.000;2024-01-25T04:33:00;19.50;51.00
66708;DHT22;53622;0.000;0.000;2024-01-25T04:35:29;19.50;50.90
66708;DHT22;53622;0.000;0.000;2024-01-25T04:37:59;19.50;50.90
66708;DHT22;53622;0.000;0.000;2024-01-25T04:40:29;19.40;50.90
66708;DHT22;53622;0.000;0.000;2024-01-25T04:42:58;19.40;50.80
66708;DHT22;53622;0.000;0.000;2024-01-25T04:45:27;19.40;50.90
66708;DHT22;53622;0.000;0.000;2024-01-25T04:47:56;19.40;50.90
66708;DHT22;53622;0.000;0.000;2024-01-25T04:50:25;19.50;50.90
66708;DHT22;53622;0.000;0.000;2024-01-25T04:52:54;19.40;50.80
66708;DHT22;53622;0.000;0.000;2024-01-25T04:55:23;19.40;50.80
66708;DHT22;53622;0.000;0.000;2024-01-25T04:57:53;19.40;50.90
66708;DHT22;53622;0.000;0.000;2024-01-25T05:00:22;19.40;50.90
66708;DHT22;53622;0.000;0.000;2024-01-25T05:02:51;19.40;50.90
66708;DHT22;53622;0.000;0.000;2024-01-25T05:05:20;19.40;50.90
66708;DHT22;53622;0.000;0.000;2024-01-25T05:07:49;19.40;50.80
66708;DHT22;53622;0.000;0.000;2024-01-25T05:10:18;19.40;50.80
66708;DHT22;53622;0.000;0.000;2024-01-25T05:12:47;19.40;50.80
66708;DHT22;53622;0.000;0.000;2024-01-25T05:15:18;19.40;50.80
66708;DHT22;53622;0.000;0.000;2024-01-25T05:17:46;19.40;50.80
66708;DHT22;53622;0.000;0.000;2024-01-25T05:20:16;19.40;50.80
66708;DHT22;53622;0.000;0.000;2024-01-25T05:22:45;19.40;50.70
66708;DHT22;53622;0.000;0.000;2024-01-25T05:25:14;19.40;50.70
66708;DHT22;53622;0.000;0.000;2024-01-25T05:27:43;19.40;50.70
66708;DHT22;53622;0.000;0.000;2024-01-25T05:30:13;19.40;50.70
66708;DHT22;53622;0.000;0.000;2024-01-25T05:32:43;19.40;50.70
66708;DHT22;53622;0.000;0.000;2024-01-25T05:35:13;19.40;50.70
66708;DHT22;53622;0.000;0.000;2024-01-25T05:37:42;19.40;50.70
66708;DHT22;53622;0.000;0.000;2024-01-25T05:40:12;19.40;50.70
66708;DHT22;53622;0.000;0.000;2024-01-25T05:42:41;19.40;50.70
66708;DHT22;53622;0.000;0.000;2024-01-25T05:45:10;19.40;50.70
66708;DHT22;53622;0.000;0.000;2024-01-25T05:47:39;19.40;50.70
66708;DHT22;53622;0.000;0.000;2024-01-25T05:50:10;19.40;50.80
66708;DHT22;53622;0.000;0.000;2024-01-25T05:52:39;19.40;50.80
66708;DHT22;53622;0.000;0.000;2024-01-25T05:55:08;19.40;50.70
66708;DHT22;53622;0.000;0.000;2024-01-25T05:57:37;19.40;50.70
66708;DHT22;53622;0.000;0.000;2024-01-25T06:00:07;19.30;50.70
66708;DHT22;53622;0.000;0.000;2024-01-25T06:02:37;19.40;50.80
66708;DHT22;53622;0.000;0.000;2024-01-25T06:05:06;19.40;51.60
66708;DHT22;53622;0.000;0.000;2024-01-25T06:07:37;19.40;51.10
66708;DHT22;53622;0.000;0.000;2024-01-25T06:10:07;19.50;51.50
66708;DHT22;53622;0.000;0.000;2024-01-25T06:12:36;19.50;52.10
66708;DHT22;53622;0.000;0.000;2024-01-25T06:15:07;19.60;51.90
66708;DHT22;53622;0.000;0.000;2024-01-25T06:17:36;19.70;52.60
66708;DHT22;53622;0.000;0.000;2024-01-25T06:20:05;19.80;52.80
66708;DHT22;53622;0.000;0.000;2024-01-25T06:22:36;19.90;53.00
66708;DHT22;53622;0.000;0.000;2024-01-25T06:25:05;19.90;53.30
66708;DHT22;53622;0.000;0.000;2024-01-25T06:27:35;20.00;53.30
66708;DHT22;53622;0.000;0.000;2024-01-25T06:30:05;20.00;52.90
66708;DHT22;53622;0.000;0.000;2024-01-25T06:32:34;20.10;53.10
66708;DHT22;53622;0.000;0.000;2024-01-25T06:35:03;20.10;52.70
66708;DHT22;53622;0.000;0.000;2024-01-25T06:37:33;20.10;52.70
66708;DHT22;53622;0.000;0.000;2024-01-25T06:40:03;20.10;52.80
66708;DHT22;53622;0.000;0.000;2024-01-25T06:42:33;20.20;53.00
66708;DHT22;53622;0.000;0.000;2024-01-25T06:45:02;20.30;53.00
66708;DHT22;53622;0.000;0.000;2024-01-25T06:47:31;20.30;53.00
66708;DHT22;53622;0.000;0.000;2024-01-25T06:50:00;20.30;52.70
66708;DHT22;53622;0.000;0.000;2024-01-25T06:52:29;20.30;52.60
66708;DHT22;53622;0.000;0.000;2024-01-25T06:54:59;20.30;52.50
66708;DHT22;53622;0.000;0.000;2024-01-25T06:57:29;20.30;52.50
66708;DHT22;53622;0.000;0.000;2024-01-25T06:59:58;20.40;52.70
66708;DHT22;53622;0.000;0.000;2024-01-25T07:02:27;20.40;52.50
66708;DHT22;53622;0.000;0.000;2024-01-25T07:04:57;20.40;52.50
66708;DHT22;53622;0.000;0.000;2024-01-25T07:07:27;20.40;52.50
66708;DHT22;53622;0.000;0.000;2024-01-25T07:09:56;20.40;52.70
66708;DHT22;53622;0.000;0.000;2024-01-25T07:12:25;20.50;52.60
66708;DHT22;53622;0.000;0.000;2024-01-25T07:14:55;20.50;52.50
66708;DHT22;53622;0.000;0.000;2024-01-25T07:17:24;20.50;52.40
66708;DHT22;53622;0.000;0.000;2024-01-25T07:19:53;20.60;52.30
66708;DHT22;53622;0.000;0.000;2024-01-25T07:22:22;20.50;52.30
66708;DHT22;53622;0.000;0.000;2024-01-25T07:24:52;20.60;52.40
66708;DHT22;53622;0.000;0.000;2024-01-25T07:27:20;20.50;52.30
66708;DHT22;53622;0.000;0.000;2024-01-25T07:29:49;20.50;52.20
66708;DHT22;53622;0.000;0.000;2024-01-25T07:32:20;20.60;52.30
66708;DHT22;53622;0.000;0.000;2024-01-25T07:34:51;20.60;52.30
66708;DHT22;53622;0.000;0.000;2024-01-25T07:37:20;20.60;52.30
66708;DHT22;53622;0.000;0.000;2024-01-25T07:39:49;20.60;52.20
66708;DHT22;53622;0.000;0.000;2024-01-25T07:42:18;20.60;52.10
66708;DHT22;53622;0.000;0.000;2024-01-25T07:44:47;20.70;52.20
66708;DHT22;53622;0.000;0.000;2024-01-25T07:47:16;20.70;52.20
66708;DHT22;53622;0.000;0.000;2024-01-25T07:49:46;20.70;51.90
66708;DHT22;53622;0.000;0.000;2024-01-25T07:52:15;20.70;51.80
66708;DHT22;53622;0.000;0.000;2024-01-25T07:54:44;20.70;51.90
66708;DHT22;53622;0.000;0.000;2024-01-25T07:57:13;20.70;51.80
66708;DHT22;53622;0.000;0.000;2024-01-25T07:59:42;20.80;51.80
66708;DHT22;53622;0.000;0.000;2024-01-25T08:02:11;20.80;51.90
66708;DHT22;53622;0.000;0.000;2024-01-25T08:04:42;20.80;51.70
66708;DHT22;53622;0.000;0.000;2024-01-25T08:07:12;20.80;51.60
66708;DHT22;53622;0.000;0.000;2024-01-25T08:09:48;20.80;51.60
66708;DHT22;53622;0.000;0.000;2024-01-25T08:12:20;20.90;51.50
66708;DHT22;53622;0.000;0.000;2024-01-25T08:14:49;20.90;51.50
66708;DHT22;53622;0.000;0.000;2024-01-25T08:17:18;20.90;51.50
66708;DHT22;53622;0.000;0.000;2024-01-25T08:19:46;21.00;51.60
66708;DHT22;53622;0.000;0.000;2024-01-25T08:22:20;21.00;51.50
66708;DHT22;53622;0.000;0.000;2024-01-25T08:24:50;21.00;51.40
66708;DHT22;53622;0.000;0.000;2024-01-25T08:27:18;20.90;51.40
66708;DHT22;53622;0.000;0.000;2024-01-25T08:29:47;21.00;51.60
66708;DHT22;53622;0.000;0.000;2024-01-25T08:32:16;21.00;51.70
66708;DHT22;53622;0.000;0.000;2024-01-25T08:34:45;21.00;51.70
66708;DHT22;53622;0.000;0.000;2024-01-25T08:37:14;21.00;51.70
66708;DHT22;53622;0.000;0.000;2024-01-25T08:39:44;21.00;51.60
66708;DHT22;53622;0.000;0.000;2024-01-25T08:42:17;21.00;51.40
66708;DHT22;53622;0.000;0.000;2024-01-25T08:44:46;21.00;51.50
66708;DHT22;53622;0.000;0.000;2024-01-25T08:47:17;21.00;51.40
66708;DHT22;53622;0.000;0.000;2024-01-25T08:49:46;21.00;51.40
66708;DHT22;53622;0.000;0.000;2024-01-25T08:52:15;21.00;51.40
66708;DHT22;53622;0.000;0.000;2024-01-25T08:54:45;21.10;51.40
66708;DHT22;53622;0.000;0.000;2024-01-25T08:57:14;21.10;51.40
66708;DHT22;53622;0.000;0.000;2024-01-25T08:59:44;21.10;51.30
66708;DHT22;53622;0.000;0.000;2024-01-25T09:02:12;21.20;51.30
66708;DHT22;53622;0.000;0.000;2024-01-25T09:04:42;21.20;51.20
66708;DHT22;53622;0.000;0.000;2024-01-25T09:07:11;21.20;51.10
66708;DHT22;53622;0.000;0.000;2024-01-25T09:09:40;21.20;51.20
66708;DHT22;53622;0.000;0.000;2024-01-25T09:12:11;21.20;51.10
66708;DHT22;53622;0.000;0.000;2024-01-25T09:14:40;21.20;51.10
66708;DHT22;53622;0.000;0.000;2024-01-25T09:17:09;21.20;51.10
66708;DHT22;53622;0.000;0.000;2024-01-25T09:19:38;21.20;51.20
66708;DHT22;53622;0.000;0.000;2024-01-25T09:22:07;21.20;51.30
66708;DHT22;53622;0.000;0.000;2024-01-25T09:24:37;21.20;51.20
66708;DHT22;53622;0.000;0.000;2024-01-25T09:27:07;21.20;51.10
66708;DHT22;53622;0.000;0.000;2024-01-25T09:29:38;21.30;51.10
66708;DHT22;53622;0.000;0.000;2024-01-25T09:32:07;21.30;51.10
66708;DHT22;53622;0.000;0.000;2024-01-25T09:34:37;21.30;51.00
66708;DHT22;53622;0.000;0.000;2024-01-25T09:37:08;21.30;51.40
66708;DHT22;53622;0.000;0.000;2024-01-25T09:39:36;21.30;51.40
66708;DHT22;53622;0.000;0.000;2024-01-25T09:42:06;21.30;51.00
66708;DHT22;53622;0.000;0.000;2024-01-25T09:44:38;21.30;51.20
66708;DHT22;53622;0.000;0.000;2024-01-25T09:47:08;21.30;51.10
66708;DHT22;53622;0.000;0.000;2024-01-25T09:49:37;21.30;51.00
66708;DHT22;53622;0.000;0.000;2024-01-25T09:52:11;21.30;51.00
66708;DHT22;53622;0.000;0.000;2024-01-25T09:54:41;21.30;51.00
66708;DHT22;53622;0.000;0.000;2024-01-25T09:57:14;21.30;51.00
66708;DHT22;53622;0.000;0.000;2024-01-25T09:59:46;21.30;51.00
66708;DHT22;53622;0.000;0.000;2024-01-25T10:02:14;21.30;51.00
66708;DHT22;53622;0.000;0.000;2024-01-25T10:04:49;21.30;51.60
66708;DHT22;53622;0.000;0.000;2024-01-25T10:07:36;21.30;51.00
66708;DHT22;53622;0.000;0.000;2024-01-25T10:10:07;21.40;50.90
66708;DHT22;53622;0.000;0.000;2024-01-25T10:12:37;21.40;50.90
66708;DHT22;53622;0.000;0.000;2024-01-25T10:15:08;21.40;50.80
66708;DHT22;53622;0.000;0.000;2024-01-25T10:17:38;21.40;50.80
66708;DHT22;53622;0.000;0.000;2024-01-25T10:20:27;21.40;50.80
66708;DHT22;53622;0.000;0.000;2024-01-25T10:23:00;21.40;50.90
66708;DHT22;53622;0.000;0.000;2024-01-25T10:25:29;21.40;51.00
66708;DHT22;53622;0.000;0.000;2024-01-25T10:27:58;21.10;50.90
66708;DHT22;53622;0.000;0.000;2024-01-25T10:30:31;20.70;51.30
66708;DHT22;53622;0.000;0.000;2024-01-25T10:33:01;20.60;51.90
66708;DHT22;53622;0.000;0.000;2024-01-25T10:35:32;20.60;51.90
66708;DHT22;53622;0.000;0.000;2024-01-25T10:38:02;20.70;52.00
66708;DHT22;53622;0.000;0.000;2024-01-25T10:40:32;20.80;52.10
66708;DHT22;53622;0.000;0.000;2024-01-25T10:43:01;20.90;51.90
66708;DHT22;53622;0.000;0.000;2024-01-25T10:45:31;20.90;51.90
66708;DHT22;53622;0.000;0.000;2024-01-25T10:48:00;21.00;52.10
66708;DHT22;53622;0.000;0.000;2024-01-25T10:50:29;21.00;52.20
66708;DHT22;53622;0.000;0.000;2024-01-25T10:52:58;21.10;52.30
66708;DHT22;53622;0.000;0.000;2024-01-25T10:55:29;21.10;52.20
66708;DHT22;53622;0.000;0.000;2024-01-25T10:57:57;21.10;52.00
66708;DHT22;53622;0.000;0.000;2024-01-25T11:00:26;21.10;52.10
66708;DHT22;53622;0.000;0.000;2024-01-25T11:03:03;21.10;52.00
66708;DHT22;53622;0.000;0.000;2024-01-25T11:05:34;21.10;52.00
66708;DHT22;53622;0.000;0.000;2024-01-25T11:08:04;21.10;51.80
66708;DHT22;53622;0.000;0.000;2024-01-25T11:10:35;21.20;52.10
66708;DHT22;53622;0.000;0.000;2024-01-25T11:13:05;21.20;52.00
66708;DHT22;53622;0.000;0.000;2024-01-25T11:15:42;21.20;52.00
66708;DHT22;53622;0.000;0.000;2024-01-25T11:18:12;21.20;51.90
66708;DHT22;53622;0.000;0.000;2024-01-25T11:20:41;21.20;51.90
66708;DHT22;53622;0.000;0.000;2024-01-25T11:23:15;21.20;51.90
66708;DHT22;53622;0.000;0.000;2024-01-25T11:25:45;21.20;51.90
66708;DHT22;53622;0.000;0.000;2024-01-25T11:28:15;21.20;51.80
66708;DHT22;53622;0.000;0.000;2024-01-25T11:30:44;21.30;51.90
66708;DHT22;53622;0.000;0.000;2024-01-25T11:33:17;21.30;52.40
66708;DHT22;53622;0.000;0.000;2024-01-25T11:35:54;21.40;51.70
66708;DHT22;53622;0.000;0.000;2024-01-25T11:38:23;21.40;51.80
66708;DHT22;53622;0.000;0.000;2024-01-25T11:40:51;21.40;51.70
66708;DHT22;53622;0.000;0.000;2024-01-25T11:43:20;21.40;51.90
66708;DHT22;53622;0.000;0.000;2024-01-25T11:45:49;21.40;51.90
66708;DHT22;53622;0.000;0.000;2024-01-25T11:48:19;21.40;51.90
66708;DHT22;53622;0.000;0.000;2024-01-25T11:50:48;21.40;51.90
66708;DHT22;53622;0.000;0.000;2024-01-25T11:53:18;21.50;52.00
66708;DHT22;53622;0.000;0.000;2024-01-25T11:55:46;21.50;52.00
66708;DHT22;53622;0.000;0.000;2024-01-25T11:58:15;21.50;52.10
66708;DHT22;53622;0.000;0.000;2024-01-25T12:00:44;21.50;52.00
66708;DHT22;53622;0.000;0.000;2024-01-25T12:03:14;21.50;52.10
66708;DHT22;53622;0.000;0.000;2024-01-25T12:05:45;21.50;52.10
66708;DHT22;53622;0.000;0.000;2024-01-25T12:08:14;21.50;52.10
66708;DHT22;53622;0.000;0.000;2024-01-25T12:10:43;21.50;52.30
66708;DHT22;53622;0.000;0.000;2024-01-25T12:13:12;21.50;52.00
66708;DHT22;53622;0.000;0.000;2024-01-25T12:15:41;21.50;52.10
66708;DHT22;53622;0.000;0.000;2024-01-25T12:18:10;21.50;52.00
66708;DHT22;53622;0.000;0.000;2024-01-25T12:20:39;21.50;52.00
66708;DHT22;53622;0.000;0.000;2024-01-25T12:23:09;21.50;52.00
66708;DHT22;53622;0.000;0.000;2024-01-25T12:25:39;21.50;51.90
66708;DHT22;53622;0.000;0.000;2024-01-25T12:28:09;21.50;51.90
66708;DHT22;53622;0.000;0.000;2024-01-25T12:30:38;21.50;51.80
66708;DHT22;53622;0.000;0.000;2024-01-25T12:33:07;21.50;51.80
66708;DHT22;53622;0.000;0.000;2024-01-25T12:35:36;21.50;51.80
66708;DHT22;53622;0.000;0.000;2024-01-25T12:38:07;21.50;51.90
66708;DHT22;53622;0.000;0.000;2024-01-25T12:40:38;21.50;51.80
66708;DHT22;53622;0.000;0.000;2024-01-25T12:43:07;21.50;51.90
66708;DHT22;53622;0.000;0.000;2024-01-25T12:45:36;21.50;51.80
66708;DHT22;53622;0.000;0.000;2024-01-25T12:48:06;21.50;51.80
66708;DHT22;53622;0.000;0.000;2024-01-25T12:50:36;21.50;51.80
66708;DHT22;53622;0.000;0.000;2024-01-25T12:53:05;21.50;51.90
66708;DHT22;53622;0.000;0.000;2024-01-25T12:55:35;21.60;51.70
66708;DHT22;53622;0.000;0.000;2024-01-25T12:58:05;21.60;51.80
66708;DHT22;53622;0.000;0.000;2024-01-25T13:00:34;21.60;52.50
66708;DHT22;53622;0.000;0.000;2024-01-25T13:03:04;21.60;51.80
66708;DHT22;53622;0.000;0.000;2024-01-25T13:05:33;21.60;51.90
66708;DHT22;53622;0.000;0.000;2024-01-25T13:08:03;21.60;51.80
66708;DHT22;53622;0.000;0.000;2024-01-25T13:10:31;21.60;51.80
66708;DHT22;53622;0.000;0.000;2024-01-25T13:13:00;21.60;51.90
66708;DHT22;53622;0.000;0.000;2024-01-25T13:15:30;21.60;51.90
66708;DHT22;53622;0.000;0.000;2024-01-25T13:17:59;21.60;51.90
66708;DHT22;53622;0.000;0.000;2024-01-25T13:20:28;21.60;51.80
66708;DHT22;53622;0.000;0.000;2024-01-25T13:22:57;21.60;51.80
66708;DHT22;53622;0.000;0.000;2024-01-25T13:25:26;21.60;51.80
66708;DHT22;53622;0.000;0.000;2024-01-25T13:27:55;21.60;51.80
66708;DHT22;53622;0.000;0.000;2024-01-25T13:30:24;21.60;51.90
66708;DHT22;53622;0.000;0.000;2024-01-25T13:32:54;21.60;52.00
66708;DHT22;53622;0.000;0.000;2024-01-25T13:35:23;21.60;51.90
66708;DHT22;53622;0.000;0.000;2024-01-25T13:37:52;21.60;51.90
66708;DHT22;53622;0.000;0.000;2024-01-25T13:40:20;21.60;52.00
66708;DHT22;53622;0.000;0.000;2024-01-25T13:42:49;21.60;51.90
66708;DHT22;53622;0.000;0.000;2024-01-25T13:45:18;21.60;52.00
66708;DHT22;53622;0.000;0.000;2024-01-25T13:47:47;21.60;52.00
66708;DHT22;53622;0.000;0.000;2024-01-25T13:50:17;21.60;51.90
66708;DHT22;53622;0.000;0.000;2024-01-25T13:52:46;21.60;51.90
66708;DHT22;53622;0.000;0.000;2024-01-25T13:55:14;21.60;51.90
66708;DHT22;53622;0.000;0.000;2024-01-25T13:57:43;21.60;51.80
66708;DHT22;53622;0.000;0.000;2024-01-25T14:00:13;21.60;51.80
66708;DHT22;53622;0.000;0.000;2024-01-25T14:02:42;21.60;51.80
66708;DHT22;53622;0.000;0.000;2024-01-25T14:05:12;21.60;51.80
66708;DHT22;53622;0.000;0.000;2024-01-25T14:07:43;21.60;51.80
66708;DHT22;53622;0.000;0.000;2024-01-25T14:10:13;21.70;51.80
66708;DHT22;53622;0.000;0.000;2024-01-25T14:12:42;21.60;51.80
66708;DHT22;53622;0.000;0.000;2024-01-25T14:15:11;21.60;51.70
66708;DHT22;53622;0.000;0.000;2024-01-25T14:17:40;21.60;51.70
66708;DHT22;53622;0.000;0.000;2024-01-25T14:20:10;21.60;51.70
66708;DHT22;53622;0.000;0.000;2024-01-25T14:22:39;21.60;51.70
66708;DHT22;53622;0.000;0.000;2024-01-25T14:25:10;21.60;51.70
66708;DHT22;53622;0.000;0.000;2024-01-25T14:27:39;21.60;51.70
66708;DHT22;53622;0.000;0.000;2024-01-25T14:30:09;21.70;51.60
66708;DHT22;53622;0.000;0.000;2024-01-25T14:32:38;21.70;51.80
66708;DHT22;53622;0.000;0.000;2024-01-25T14:35:08;21.70;51.80
66708;DHT22;53622;0.000;0.000;2024-01-25T14:37:36;21.70;51.70
66708;DHT22;53622;0.000;0.000;2024-01-25T14:40:06;21.70;51.70
66708;DHT22;53622;0.000;0.000;2024-01-25T14:42:57;21.70;51.70
66708;DHT22;53622;0.000;0.000;2024-01-25T14:45:26;21.70;51.80
66708;DHT22;53622;0.000;0.000;2024-01-25T14:47:56;21.70;51.80
66708;DHT22;53622;0.000;0.000;2024-01-25T14:50:25;21.70;51.80
66708;DHT22;53622;0.000;0.000;2024-01-25T14:52:54;21.70;52.40
66708;DHT22;53622;0.000;0.000;2024-01-25T14:55:22;21.70;51.90
66708;DHT22;53622;0.000;0.000;2024-01-25T14:57:51;21.70;51.80
66708;DHT22;53622;0.000;0.000;2024-01-25T15:00:22;21.70;51.80
66708;DHT22;53622;0.000;0.000;2024-01-25T15:02:51;21.70;51.70
66708;DHT22;53622;0.000;0.000;2024-01-25T15:05:20;21.70;51.70
66708;DHT22;53622;0.000;0.000;2024-01-25T15:07:49;21.70;51.70
66708;DHT22;53622;0.000;0.000;2024-01-25T15:10:18;21.80;51.80
66708;DHT22;53622;0.000;0.000;2024-01-25T15:12:46;21.80;51.80
66708;DHT22;53622;0.000;0.000;2024-01-25T15:15:16;21.70;51.70
66708;DHT22;53622;0.000;0.000;2024-01-25T15:17:46;21.70;51.60
66708;DHT22;53622;0.000;0.000;2024-01-25T15:20:15;21.70;51.70
66708;DHT22;53622;0.000;0.000;2024-01-25T15:22:44;21.70;51.70
66708;DHT22;53622;0.000;0.000;2024-01-25T15:25:12;21.70;51.80
66708;DHT22;53622;0.000;0.000;2024-01-25T15:27:42;21.70;51.70
66708;DHT22;53622;0.000;0.000;2024-01-25T15:30:11;21.70;51.80
66708;DHT22;53622;0.000;0.000;2024-01-25T15:32:40;21.70;51.70
66708;DHT22;53622;0.000;0.000;2024-01-25T15:35:11;21.70;51.60
66708;DHT22;53622;0.000;0.000;2024-01-25T15:37:40;21.80;51.30
66708;DHT22;53622;0.000;0.000;2024-01-25T15:40:10;21.80;51.50
66708;DHT22;53622;0.000;0.000;2024-01-25T15:42:43;21.80;51.50
66708;DHT22;53622;0.000;0.000;2024-01-25T15:45:12;21.80;51.30
66708;DHT22;53622;0.000;0.000;2024-01-25T15:47:41;21.80;51.30
66708;DHT22;53622;0.000;0.000;2024-01-25T15:50:13;21.80;51.30
66708;DHT22;53622;0.000;0.000;2024-01-25T15:52:41;21.80;51.40
66708;DHT22;53622;0.000;0.000;2024-01-25T15:55:10;21.90;51.40
66708;DHT22;53622;0.000;0.000;2024-01-25T15:57:39;21.90;51.20
66708;DHT22;53622;0.000;0.000;2024-01-25T16:00:09;21.90;51.20